sensor_id;sensor_type;location;lat;lon;timestamp;temperature;humidity
3528;DHT22;1778;47.966;7.854;2023-06-01T00:00:43;14.60;99.90
3528;DHT22;1778;47.966;7.854;2023-06-01T00:01:47;14.50;99.90
3528;DHT22;1778;47.966;7.854;2023-06-01T00:02:48;14.50;99.90
3528;DHT22;1778;47.966;7.854;2023-06-01T00:03:51;14.50;99.90
3528;DHT22;1778;47.966;7.854;2023-06-01T00:04:53;14.50;99.90
3528;DHT22;1778;47.966;7.854;2023-06-01T00:05:55;14.50;99.90
3528;DHT22;1778;47.966;7.854;2023-06-01T00:06:57;14.50;99.90
3528;DHT22;1778;47.966;7.854;2023-06-01T00:08:02;14.40;99.90
3528;DHT22;1778;47.966;7.854;2023-06-01T00:09:06;14.40;99.90
3528;DHT22;1778;47.966;7.854;2023-06-01T00:10:09;14.50;99.90
3528;DHT22;1778;47.966;7.854;2023-06-01T00:11:11;14.40;99.90
3528;DHT22;1778;47.966;7.854;2023-06-01T00:12:12;14.40;99.90
3528;DHT22;1778;47.966;7.854;2023-06-01T00:13:14;14.30;99.90
3528;DHT22;1778;47.966;7.854;2023-06-01T00:14:16;14.30;99.90
3528;DHT22;1778;47.966;7.854;2023-06-01T00:15:18;14.30;99.90
3528;DHT22;1778;47.966;7.854;2023-06-01T00:16:19;14.40;99.90
3528;DHT22;1778;47.966;7.854;2023-06-01T00:17:24;14.40;99.90
3528;DHT22;1778;47.966;7.854;2023-06-01T00:18:25;14.30;99.90
3528;DHT22;1778;47.966;7.854;2023-06-01T00:19:28;14.40;99.90
3528;DHT22;1778;47.966;7.854;2023-06-01T00:20:30;14.40;99.90
3528;DHT22;1778;47.966;7.854;2023-06-01T00:21:33;14.40;99.90
3528;DHT22;1778;47.966;7.854;2023-06-01T00:22:36;14.40;99.90
3528;DHT22;1778;47.966;7.854;2023-06-01T00:23:40;14.30;99.90
3528;DHT22;1778;47.966;7.854;2023-06-01T00:24:42;14.30;99.90
3528;DHT22;1778;47.966;7.854;2023-06-01T00:25:44;14.30;99.90
3528;DHT22;1778;47.966;7.854;2023-06-01T00:26:45;14.30;99.90
3528;DHT22;1778;47.966;7.854;2023-06-01T00:27:47;14.20;99.90
3528;DHT22;1778;47.966;7.854;2023-06-01T00:28:49;14.30;99.90
3528;DHT22;1778;47.966;7.854;2023-06-01T00:29:50;14.20;99.90
3528;DHT22;1778;47.966;7.854;2023-06-01T00:30:52;14.10;99.90
3528;DHT22;1778;47.966;7.854;2023-06-01T00:31:54;14.10;99.90
3528;DHT22;1778;47.966;7.854;2023-06-01T00:32:56;14.10;99.90
3528;DHT22;1778;47.966;7.854;2023-06-01T00:33:58;14.10;99.90
3528;DHT22;1778;47.966;7.854;2023-06-01T00:34:59;14.10;99.90
3528;DHT22;1778;47.966;7.854;2023-06-01T00:36:01;14.10;99.90
3528;DHT22;1778;47.966;7.854;2023-06-01T00:37:03;14.10;99.90
3528;DHT22;1778;47.966;7.854;2023-06-01T00:38:05;14.10;99.90
3528;DHT22;1778;47.966;7.854;2023-06-01T00:39:08;14.20;99.90
3528;DHT22;1778;47.966;7.854;2023-06-01T00:40:10;14.10;99.90
3528;DHT22;1778;47.966;7.854;2023-06-01T00:41:12;14.10;99.90
3528;DHT22;1778;47.966;7.854;2023-06-01T00:42:14;14.10;99.90
3528;DHT22;1778;47.966;7.854;2023-06-01T00:43:17;14.00;99.90
3528;DHT22;1778;47.966;7.854;2023-06-01T00:44:18;14.00;99.90
3528;DHT22;1778;47.966;7.854;2023-06-01T00:45:20;14.00;99.90
3528;DHT22;1778;47.966;7.854;2023-06-01T00:46:22;14.00;99.90
3528;DHT22;1778;47.966;7.854;2023-06-01T00:47:24;13.90;99.90
3528;DHT22;1778;47.966;7.854;2023-06-01T00:48:26;13.90;99.90
3528;DHT22;1778;47.966;7.854;2023-06-01T00:49:28;14.00;99.90
3528;DHT22;1778;47.966;7.854;2023-06-01T00:50:31;13.90;99.90
3528;DHT22;1778;47.966;7.854;2023-06-01T00:51:33;14.00;99.90
3528;DHT22;1778;47.966;7.854;2023-06-01T00:52:36;13.90;99.90
3528;DHT22;1778;47.966;7.854;2023-06-01T00:53:39;13.90;99.90
3528;DHT22;1778;47.966;7.854;2023-06-01T00:54:41;14.00;99.90
3528;DHT22;1778;47.966;7.854;2023-06-01T00:55:43;13.90;99.90
3528;DHT22;1778;47.966;7.854;2023-06-01T00:56:45;13.90;99.90
3528;DHT22;1778;47.966;7.854;2023-06-01T00:57:49;14.00;99.90
3528;DHT22;1778;47.966;7.854;2023-06-01T00:58:51;13.90;99.90
3528;DHT22;1778;47.966;7.854;2023-06-01T00:59:54;13.90;99.90
3528;DHT22;1778;47.966;7.854;2023-06-01T01:00:56;13.80;99.90
3528;DHT22;1778;47.966;7.854;2023-06-01T01:01:59;13.80;99.90
3528;DHT22;1778;47.966;7.854;2023-06-01T01:03:01;13.80;99.90
3528;DHT22;1778;47.966;7.854;2023-06-01T01:04:09;13.80;99.90
3528;DHT22;1778;47.966;7.854;2023-06-01T01:05:12;13.80;99.90
3528;DHT22;1778;47.966;7.854;2023-06-01T01:06:25;13.90;99.90
3528;DHT22;1778;47.966;7.854;2023-06-01T01:09:08;13.90;99.90
3528;DHT22;1778;47.966;7.854;2023-06-01T01:10:19;13.90;99.90
3528;DHT22;1778;47.966;7.854;2023-06-01T01:11:27;13.80;99.90
3528;DHT22;1778;47.966;7.854;2023-06-01T01:12:47;13.70;99.90
3528;DHT22;1778;47.966;7.854;2023-06-01T01:14:08;13.70;99.90
3528;DHT22;1778;47.966;7.854;2023-06-01T01:15:23;13.70;99.90
3528;DHT22;1778;47.966;7.854;2023-06-01T01:16:29;13.70;99.90
3528;DHT22;1778;47.966;7.854;2023-06-01T01:17:40;13.70;99.90
3528;DHT22;1778;47.966;7.854;2023-06-01T01:19:09;13.70;99.90
3528;DHT22;1778;47.966;7.854;2023-06-01T01:20:15;13.60;99.90
3528;DHT22;1778;47.966;7.854;2023-06-01T01:21:18;13.60;99.90
3528;DHT22;1778;47.966;7.854;2023-06-01T01:27:23;13.50;99.90
3528;DHT22;1778;47.966;7.854;2023-06-01T01:28:32;13.50;99.90
3528;DHT22;1778;47.966;7.854;2023-06-01T01:29:37;13.50;99.90
3528;DHT22;1778;47.966;7.854;2023-06-01T01:30:41;13.60;99.90
3528;DHT22;1778;47.966;7.854;2023-06-01T01:31:45;13.50;99.90
3528;DHT22;1778;47.966;7.854;2023-06-01T01:32:50;13.50;99.90
3528;DHT22;1778;47.966;7.854;2023-06-01T01:33:55;13.50;99.90
3528;DHT22;1778;47.966;7.854;2023-06-01T01:34:59;13.60;99.90
3528;DHT22;1778;47.966;7.854;2023-06-01T01:36:01;13.60;99.90
3528;DHT22;1778;47.966;7.854;2023-06-01T01:37:05;13.70;99.90
3528;DHT22;1778;47.966;7.854;2023-06-01T01:38:07;13.60;99.90
3528;DHT22;1778;47.966;7.854;2023-06-01T01:39:08;13.70;99.90
3528;DHT22;1778;47.966;7.854;2023-06-01T01:40:10;13.60;99.90
3528;DHT22;1778;47.966;7.854;2023-06-01T01:41:12;13.60;99.90
3528;DHT22;1778;47.966;7.854;2023-06-01T01:42:14;13.60;99.90
3528;DHT22;1778;47.966;7.854;2023-06-01T01:43:16;13.60;99.90
3528;DHT22;1778;47.966;7.854;2023-06-01T01:44:18;13.60;99.90
3528;DHT22;1778;47.966;7.854;2023-06-01T01:45:20;13.60;99.90
3528;DHT22;1778;47.966;7.854;2023-06-01T01:46:29;13.50;99.90
3528;DHT22;1778;47.966;7.854;2023-06-01T01:47:40;13.50;99.90
3528;DHT22;1778;47.966;7.854;2023-06-01T01:48:50;13.50;99.90
3528;DHT22;1778;47.966;7.854;2023-06-01T01:49:58;13.50;99.90
3528;DHT22;1778;47.966;7.854;2023-06-01T01:51:10;13.50;99.90
3528;DHT22;1778;47.966;7.854;2023-06-01T01:52:18;13.50;99.90
3528;DHT22;1778;47.966;7.854;2023-06-01T01:53:23;13.50;99.90
3528;DHT22;1778;47.966;7.854;2023-06-01T01:54:27;13.50;99.90
3528;DHT22;1778;47.966;7.854;2023-06-01T01:55:33;13.60;99.90
3528;DHT22;1778;47.966;7.854;2023-06-01T01:56:36;13.70;99.90
3528;DHT22;1778;47.966;7.854;2023-06-01T01:57:38;13.70;99.90
3528;DHT22;1778;47.966;7.854;2023-06-01T01:58:42;13.60;99.90
3528;DHT22;1778;47.966;7.854;2023-06-01T01:59:48;13.60;99.90
3528;DHT22;1778;47.966;7.854;2023-06-01T02:00:51;13.60;99.90
3528;DHT22;1778;47.966;7.854;2023-06-01T02:01:54;13.60;99.90
3528;DHT22;1778;47.966;7.854;2023-06-01T02:02:56;13.60;99.90
3528;DHT22;1778;47.966;7.854;2023-06-01T02:04:00;13.60;99.90
3528;DHT22;1778;47.966;7.854;2023-06-01T02:05:02;13.60;99.90
3528;DHT22;1778;47.966;7.854;2023-06-01T02:06:04;13.60;99.90
3528;DHT22;1778;47.966;7.854;2023-06-01T02:07:06;13.50;99.90
3528;DHT22;1778;47.966;7.854;2023-06-01T02:08:08;13.50;99.90
3528;DHT22;1778;47.966;7.854;2023-06-01T02:09:11;13.50;99.90
3528;DHT22;1778;47.966;7.854;2023-06-01T02:10:13;13.60;99.90
3528;DHT22;1778;47.966;7.854;2023-06-01T02:11:15;13.60;99.90
3528;DHT22;1778;47.966;7.854;2023-06-01T02:12:17;13.60;99.90
3528;DHT22;1778;47.966;7.854;2023-06-01T02:13:19;13.60;99.90
3528;DHT22;1778;47.966;7.854;2023-06-01T02:14:21;13.60;99.90
3528;DHT22;1778;47.966;7.854;2023-06-01T02:15:23;13.60;99.90
3528;DHT22;1778;47.966;7.854;2023-06-01T02:16:25;13.50;99.90
3528;DHT22;1778;47.966;7.854;2023-06-01T02:17:27;13.50;99.90
3528;DHT22;1778;47.966;7.854;2023-06-01T02:18:29;13.50;99.90
3528;DHT22;1778;47.966;7.854;2023-06-01T02:19:33;13.50;99.90
3528;DHT22;1778;47.966;7.854;2023-06-01T02:20:35;13.50;99.90
3528;DHT22;1778;47.966;7.854;2023-06-01T02:21:37;13.50;99.90
3528;DHT22;1778;47.966;7.854;2023-06-01T02:22:39;13.50;99.90
3528;DHT22;1778;47.966;7.854;2023-06-01T02:23:41;13.50;99.90
3528;DHT22;1778;47.966;7.854;2023-06-01T02:24:44;13.50;99.90
3528;DHT22;1778;47.966;7.854;2023-06-01T02:25:47;13.50;99.90
3528;DHT22;1778;47.966;7.854;2023-06-01T02:26:49;13.50;99.90
3528;DHT22;1778;47.966;7.854;2023-06-01T02:27:53;13.50;99.90
3528;DHT22;1778;47.966;7.854;2023-06-01T02:28:56;13.50;99.90
3528;DHT22;1778;47.966;7.854;2023-06-01T02:29:58;13.40;99.90
3528;DHT22;1778;47.966;7.854;2023-06-01T02:31:00;13.40;99.90
3528;DHT22;1778;47.966;7.854;2023-06-01T02:32:02;13.40;99.90
3528;DHT22;1778;47.966;7.854;2023-06-01T02:33:04;13.50;99.90
3528;DHT22;1778;47.966;7.854;2023-06-01T02:34:07;13.40;99.90
3528;DHT22;1778;47.966;7.854;2023-06-01T02:35:08;13.40;99.90
3528;DHT22;1778;47.966;7.854;2023-06-01T02:36:10;13.50;99.90
3528;DHT22;1778;47.966;7.854;2023-06-01T02:37:12;13.50;99.90
3528;DHT22;1778;47.966;7.854;2023-06-01T02:38:14;13.40;99.90
3528;DHT22;1778;47.966;7.854;2023-06-01T02:39:16;13.40;99.90
3528;DHT22;1778;47.966;7.854;2023-06-01T02:40:19;13.50;99.90
3528;DHT22;1778;47.966;7.854;2023-06-01T02:41:20;13.50;99.90
3528;DHT22;1778;47.966;7.854;2023-06-01T02:42:23;13.40;99.90
3528;DHT22;1778;47.966;7.854;2023-06-01T02:43:25;13.50;99.90
3528;DHT22;1778;47.966;7.854;2023-06-01T02:44:26;13.50;99.90
3528;DHT22;1778;47.966;7.854;2023-06-01T02:45:28;13.50;99.90
3528;DHT22;1778;47.966;7.854;2023-06-01T02:46:30;13.50;99.90
3528;DHT22;1778;47.966;7.854;2023-06-01T02:47:32;13.50;99.90
3528;DHT22;1778;47.966;7.854;2023-06-01T02:48:33;13.50;99.90
3528;DHT22;1778;47.966;7.854;2023-06-01T02:49:35;13.50;99.90
3528;DHT22;1778;47.966;7.854;2023-06-01T02:50:37;13.50;99.90
3528;DHT22;1778;47.966;7.854;2023-06-01T02:51:39;13.50;99.90
3528;DHT22;1778;47.966;7.854;2023-06-01T02:52:55;13.50;99.90
3528;DHT22;1778;47.966;7.854;2023-06-01T02:53:56;13.50;99.90
3528;DHT22;1778;47.966;7.854;2023-06-01T02:54:58;13.50;99.90
3528;DHT22;1778;47.966;7.854;2023-06-01T02:56:22;13.50;99.90
3528;DHT22;1778;47.966;7.854;2023-06-01T02:57:43;13.50;99.90
3528;DHT22;1778;47.966;7.854;2023-06-01T02:58:45;13.40;99.90
3528;DHT22;1778;47.966;7.854;2023-06-01T03:00:08;13.40;99.90
3528;DHT22;1778;47.966;7.854;2023-06-01T03:01:20;13.40;99.90
3528;DHT22;1778;47.966;7.854;2023-06-01T03:02:22;13.40;99.90
3528;DHT22;1778;47.966;7.854;2023-06-01T03:03:25;13.40;99.90
3528;DHT22;1778;47.966;7.854;2023-06-01T03:04:27;13.40;99.90
3528;DHT22;1778;47.966;7.854;2023-06-01T03:05:31;13.40;99.90
3528;DHT22;1778;47.966;7.854;2023-06-01T03:06:54;13.40;99.90
3528;DHT22;1778;47.966;7.854;2023-06-01T03:08:06;13.40;99.90
3528;DHT22;1778;47.966;7.854;2023-06-01T03:09:09;13.40;99.90
3528;DHT22;1778;47.966;7.854;2023-06-01T03:10:26;13.40;99.90
3528;DHT22;1778;47.966;7.854;2023-06-01T03:11:44;13.40;99.90
3528;DHT22;1778;47.966;7.854;2023-06-01T03:12:45;13.30;99.90
3528;DHT22;1778;47.966;7.854;2023-06-01T03:13:47;13.10;99.90
3528;DHT22;1778;47.966;7.854;2023-06-01T03:14:49;13.00;99.90
3528;DHT22;1778;47.966;7.854;2023-06-01T03:15:51;12.90;99.90
3528;DHT22;1778;47.966;7.854;2023-06-01T03:16:54;12.80;99.90
3528;DHT22;1778;47.966;7.854;2023-06-01T03:17:56;12.70;99.90
3528;DHT22;1778;47.966;7.854;2023-06-01T03:18:58;12.70;99.90
3528;DHT22;1778;47.966;7.854;2023-06-01T03:20:00;12.70;99.90
3528;DHT22;1778;47.966;7.854;2023-06-01T03:21:01;12.70;99.90
3528;DHT22;1778;47.966;7.854;2023-06-01T03:22:04;12.80;99.90
3528;DHT22;1778;47.966;7.854;2023-06-01T03:23:06;12.80;99.90
3528;DHT22;1778;47.966;7.854;2023-06-01T03:24:08;12.80;99.90
3528;DHT22;1778;47.966;7.854;2023-06-01T03:25:10;12.80;99.90
3528;DHT22;1778;47.966;7.854;2023-06-01T03:26:14;12.80;99.90
3528;DHT22;1778;47.966;7.854;2023-06-01T03:27:20;12.90;99.90
3528;DHT22;1778;47.966;7.854;2023-06-01T03:28:22;13.00;99.90
3528;DHT22;1778;47.966;7.854;2023-06-01T03:29:23;13.00;99.90
3528;DHT22;1778;47.966;7.854;2023-06-01T03:30:25;13.00;99.90
3528;DHT22;1778;47.966;7.854;2023-06-01T03:31:28;13.00;99.90
3528;DHT22;1778;47.966;7.854;2023-06-01T03:32:30;13.00;99.90
3528;DHT22;1778;47.966;7.854;2023-06-01T03:33:33;12.90;99.90
3528;DHT22;1778;47.966;7.854;2023-06-01T03:34:35;12.90;99.90
3528;DHT22;1778;47.966;7.854;2023-06-01T03:35:38;13.00;99.90
3528;DHT22;1778;47.966;7.854;2023-06-01T03:36:40;13.00;99.90
3528;DHT22;1778;47.966;7.854;2023-06-01T03:37:44;13.00;99.90
3528;DHT22;1778;47.966;7.854;2023-06-01T03:38:49;13.10;99.90
3528;DHT22;1778;47.966;7.854;2023-06-01T03:39:52;13.10;99.90
3528;DHT22;1778;47.966;7.854;2023-06-01T03:40:57;13.10;99.90
3528;DHT22;1778;47.966;7.854;2023-06-01T03:42:02;13.10;99.90
3528;DHT22;1778;47.966;7.854;2023-06-01T03:43:04;13.00;99.90
3528;DHT22;1778;47.966;7.854;2023-06-01T03:44:06;13.00;99.90
3528;DHT22;1778;47.966;7.854;2023-06-01T03:45:10;13.10;99.90
3528;DHT22;1778;47.966;7.854;2023-06-01T03:46:12;13.00;99.90
3528;DHT22;1778;47.966;7.854;2023-06-01T03:47:14;13.00;99.90
3528;DHT22;1778;47.966;7.854;2023-06-01T03:48:16;13.00;99.90
3528;DHT22;1778;47.966;7.854;2023-06-01T03:49:18;13.00;99.90
3528;DHT22;1778;47.966;7.854;2023-06-01T03:50:20;13.00;99.90
3528;DHT22;1778;47.966;7.854;2023-06-01T03:51:23;13.00;99.90
3528;DHT22;1778;47.966;7.854;2023-06-01T03:52:26;13.00;99.90
3528;DHT22;1778;47.966;7.854;2023-06-01T03:53:29;13.00;99.90
3528;DHT22;1778;47.966;7.854;2023-06-01T03:54:32;13.10;99.90
3528;DHT22;1778;47.966;7.854;2023-06-01T03:55:35;13.10;99.90
3528;DHT22;1778;47.966;7.854;2023-06-01T03:56:49;13.00;99.90
3528;DHT22;1778;47.966;7.854;2023-06-01T03:57:51;13.10;99.90
3528;DHT22;1778;47.966;7.854;2023-06-01T03:58:52;13.00;99.90
3528;DHT22;1778;47.966;7.854;2023-06-01T03:59:54;13.10;99.90
3528;DHT22;1778;47.966;7.854;2023-06-01T04:00:56;13.10;99.90
3528;DHT22;1778;47.966;7.854;2023-06-01T04:01:59;13.10;99.90
3528;DHT22;1778;47.966;7.854;2023-06-01T04:03:01;13.00;99.90
3528;DHT22;1778;47.966;7.854;2023-06-01T04:04:06;12.90;99.90
3528;DHT22;1778;47.966;7.854;2023-06-01T04:05:10;13.00;99.90
3528;DHT22;1778;47.966;7.854;2023-06-01T04:06:16;13.00;99.90
3528;DHT22;1778;47.966;7.854;2023-06-01T04:07:21;13.00;99.90
3528;DHT22;1778;47.966;7.854;2023-06-01T04:08:24;13.00;99.90
3528;DHT22;1778;47.966;7.854;2023-06-01T04:09:27;13.00;99.90
3528;DHT22;1778;47.966;7.854;2023-06-01T04:10:30;13.00;99.90
3528;DHT22;1778;47.966;7.854;2023-06-01T04:11:35;13.00;99.90
3528;DHT22;1778;47.966;7.854;2023-06-01T04:12:37;13.00;99.90
3528;DHT22;1778;47.966;7.854;2023-06-01T04:13:39;13.00;99.90
3528;DHT22;1778;47.966;7.854;2023-06-01T04:14:41;13.00;99.90
3528;DHT22;1778;47.966;7.854;2023-06-01T04:15:43;13.00;99.90
3528;DHT22;1778;47.966;7.854;2023-06-01T04:16:47;13.00;99.90
3528;DHT22;1778;47.966;7.854;2023-06-01T04:17:49;12.90;99.90
3528;DHT22;1778;47.966;7.854;2023-06-01T04:18:51;12.90;99.90
3528;DHT22;1778;47.966;7.854;2023-06-01T04:19:57;12.90;99.90
3528;DHT22;1778;47.966;7.854;2023-06-01T04:20:59;13.10;99.90
3528;DHT22;1778;47.966;7.854;2023-06-01T04:22:02;13.00;99.90
3528;DHT22;1778;47.966;7.854;2023-06-01T04:23:04;13.00;99.90
3528;DHT22;1778;47.966;7.854;2023-06-01T04:24:07;13.00;99.90
3528;DHT22;1778;47.966;7.854;2023-06-01T04:25:12;13.00;99.90
3528;DHT22;1778;47.966;7.854;2023-06-01T04:26:14;13.00;99.90
3528;DHT22;1778;47.966;7.854;2023-06-01T04:27:17;13.00;99.90
3528;DHT22;1778;47.966;7.854;2023-06-01T04:28:19;13.00;99.90
3528;DHT22;1778;47.966;7.854;2023-06-01T04:29:22;13.00;99.90
3528;DHT22;1778;47.966;7.854;2023-06-01T04:30:26;13.00;99.90
3528;DHT22;1778;47.966;7.854;2023-06-01T04:31:27;13.00;99.90
3528;DHT22;1778;47.966;7.854;2023-06-01T04:32:29;13.00;99.90
3528;DHT22;1778;47.966;7.854;2023-06-01T04:33:32;13.00;99.90
3528;DHT22;1778;47.966;7.854;2023-06-01T04:34:34;13.00;99.90
3528;DHT22;1778;47.966;7.854;2023-06-01T04:35:35;13.00;99.90
3528;DHT22;1778;47.966;7.854;2023-06-01T04:36:38;13.00;99.90
3528;DHT22;1778;47.966;7.854;2023-06-01T04:37:42;13.00;99.90
3528;DHT22;1778;47.966;7.854;2023-06-01T04:38:45;13.00;99.90
3528;DHT22;1778;47.966;7.854;2023-06-01T04:39:52;13.00;99.90
3528;DHT22;1778;47.966;7.854;2023-06-01T04:40:54;13.10;99.90
3528;DHT22;1778;47.966;7.854;2023-06-01T04:41:56;13.00;99.90
3528;DHT22;1778;47.966;7.854;2023-06-01T04:42:59;13.10;99.90
3528;DHT22;1778;47.966;7.854;2023-06-01T04:44:05;13.10;99.90
3528;DHT22;1778;47.966;7.854;2023-06-01T04:45:10;13.10;99.90
3528;DHT22;1778;47.966;7.854;2023-06-01T04:46:14;13.10;99.90
3528;DHT22;1778;47.966;7.854;2023-06-01T04:47:17;13.10;99.90
3528;DHT22;1778;47.966;7.854;2023-06-01T04:48:22;13.10;99.90
3528;DHT22;1778;47.966;7.854;2023-06-01T04:49:31;13.10;99.90
3528;DHT22;1778;47.966;7.854;2023-06-01T04:50:34;13.10;99.90
3528;DHT22;1778;47.966;7.854;2023-06-01T04:51:36;13.10;99.90
3528;DHT22;1778;47.966;7.854;2023-06-01T04:52:39;13.10;99.90
3528;DHT22;1778;47.966;7.854;2023-06-01T04:53:41;13.10;99.90
3528;DHT22;1778;47.966;7.854;2023-06-01T04:54:42;13.20;99.90
3528;DHT22;1778;47.966;7.854;2023-06-01T04:55:55;13.20;99.90
3528;DHT22;1778;47.966;7.854;2023-06-01T04:56:59;13.20;99.90
3528;DHT22;1778;47.966;7.854;2023-06-01T04:58:01;13.10;99.90
3528;DHT22;1778;47.966;7.854;2023-06-01T04:59:03;13.10;99.90
3528;DHT22;1778;47.966;7.854;2023-06-01T05:00:07;13.20;99.90
3528;DHT22;1778;47.966;7.854;2023-06-01T05:01:16;13.10;99.90
3528;DHT22;1778;47.966;7.854;2023-06-01T05:02:19;13.20;99.90
3528;DHT22;1778;47.966;7.854;2023-06-01T05:03:21;13.20;99.90
3528;DHT22;1778;47.966;7.854;2023-06-01T05:04:23;13.20;99.90
3528;DHT22;1778;47.966;7.854;2023-06-01T05:05:25;13.20;99.90
3528;DHT22;1778;47.966;7.854;2023-06-01T05:06:26;13.30;99.90
3528;DHT22;1778;47.966;7.854;2023-06-01T05:07:29;13.30;99.90
3528;DHT22;1778;47.966;7.854;2023-06-01T05:08:31;13.40;99.90
3528;DHT22;1778;47.966;7.854;2023-06-01T05:09:35;13.40;99.90
3528;DHT22;1778;47.966;7.854;2023-06-01T05:10:38;13.50;99.90
3528;DHT22;1778;47.966;7.854;2023-06-01T05:11:40;13.50;99.90
3528;DHT22;1778;47.966;7.854;2023-06-01T05:12:41;13.50;99.90
3528;DHT22;1778;47.966;7.854;2023-06-01T05:13:43;13.60;99.90
3528;DHT22;1778;47.966;7.854;2023-06-01T05:14:46;13.60;99.90
3528;DHT22;1778;47.966;7.854;2023-06-01T05:15:47;13.70;99.90
3528;DHT22;1778;47.966;7.854;2023-06-01T05:16:49;13.70;99.90
3528;DHT22;1778;47.966;7.854;2023-06-01T05:17:52;13.70;99.90
3528;DHT22;1778;47.966;7.854;2023-06-01T05:18:55;13.80;99.90
3528;DHT22;1778;47.966;7.854;2023-06-01T05:19:56;13.80;99.90
3528;DHT22;1778;47.966;7.854;2023-06-01T05:20:58;13.80;99.90
3528;DHT22;1778;47.966;7.854;2023-06-01T05:22:00;13.90;99.90
3528;DHT22;1778;47.966;7.854;2023-06-01T05:23:02;13.90;99.90
3528;DHT22;1778;47.966;7.854;2023-06-01T05:24:04;14.00;99.90
3528;DHT22;1778;47.966;7.854;2023-06-01T05:25:07;14.00;99.90
3528;DHT22;1778;47.966;7.854;2023-06-01T05:26:09;14.00;99.90
3528;DHT22;1778;47.966;7.854;2023-06-01T05:27:11;14.10;99.90
3528;DHT22;1778;47.966;7.854;2023-06-01T05:28:13;14.10;99.90
3528;DHT22;1778;47.966;7.854;2023-06-01T05:29:14;14.20;99.90
3528;DHT22;1778;47.966;7.854;2023-06-01T05:30:16;14.30;99.90
3528;DHT22;1778;47.966;7.854;2023-06-01T05:31:20;14.30;99.90
3528;DHT22;1778;47.966;7.854;2023-06-01T05:32:27;14.30;99.90
3528;DHT22;1778;47.966;7.854;2023-06-01T05:33:35;14.30;99.90
3528;DHT22;1778;47.966;7.854;2023-06-01T05:34:38;14.40;99.90
3528;DHT22;1778;47.966;7.854;2023-06-01T05:35:40;14.50;99.90
3528;DHT22;1778;47.966;7.854;2023-06-01T05:36:45;14.50;99.90
3528;DHT22;1778;47.966;7.854;2023-06-01T05:37:48;14.50;99.90
3528;DHT22;1778;47.966;7.854;2023-06-01T05:38:49;14.60;99.90
3528;DHT22;1778;47.966;7.854;2023-06-01T05:39:51;14.60;99.90
3528;DHT22;1778;47.966;7.854;2023-06-01T05:40:53;14.70;99.90
3528;DHT22;1778;47.966;7.854;2023-06-01T05:41:55;14.70;99.90
3528;DHT22;1778;47.966;7.854;2023-06-01T05:42:57;14.90;99.90
3528;DHT22;1778;47.966;7.854;2023-06-01T05:43:59;15.00;99.90
3528;DHT22;1778;47.966;7.854;2023-06-01T05:45:01;15.00;99.90
3528;DHT22;1778;47.966;7.854;2023-06-01T05:46:03;15.00;99.90
3528;DHT22;1778;47.966;7.854;2023-06-01T05:47:06;15.00;99.90
3528;DHT22;1778;47.966;7.854;2023-06-01T05:48:07;14.90;99.90
3528;DHT22;1778;47.966;7.854;2023-06-01T05:49:09;14.90;99.90
3528;DHT22;1778;47.966;7.854;2023-06-01T05:50:11;15.00;99.90
3528;DHT22;1778;47.966;7.854;2023-06-01T05:51:13;14.90;99.90
3528;DHT22;1778;47.966;7.854;2023-06-01T05:52:15;14.90;99.90
3528;DHT22;1778;47.966;7.854;2023-06-01T05:53:17;15.00;99.90
3528;DHT22;1778;47.966;7.854;2023-06-01T05:54:19;15.00;99.90
3528;DHT22;1778;47.966;7.854;2023-06-01T05:55:21;15.10;99.90
3528;DHT22;1778;47.966;7.854;2023-06-01T05:56:23;15.20;99.90
3528;DHT22;1778;47.966;7.854;2023-06-01T05:57:25;15.20;99.90
3528;DHT22;1778;47.966;7.854;2023-06-01T05:58:27;15.30;99.90
3528;DHT22;1778;47.966;7.854;2023-06-01T05:59:29;15.40;99.90
3528;DHT22;1778;47.966;7.854;2023-06-01T06:00:33;15.30;99.90
3528;DHT22;1778;47.966;7.854;2023-06-01T06:01:37;15.40;99.90
3528;DHT22;1778;47.966;7.854;2023-06-01T06:02:40;15.40;99.90
3528;DHT22;1778;47.966;7.854;2023-06-01T06:03:43;15.40;99.90
3528;DHT22;1778;47.966;7.854;2023-06-01T06:04:46;15.50;99.90
3528;DHT22;1778;47.966;7.854;2023-06-01T06:05:48;15.50;99.90
3528;DHT22;1778;47.966;7.854;2023-06-01T06:06:50;15.50;99.90
3528;DHT22;1778;47.966;7.854;2023-06-01T06:07:52;15.50;99.90
3528;DHT22;1778;47.966;7.854;2023-06-01T06:08:53;15.50;99.90
3528;DHT22;1778;47.966;7.854;2023-06-01T06:09:55;15.60;99.90
3528;DHT22;1778;47.966;7.854;2023-06-01T06:10:57;15.70;99.90
3528;DHT22;1778;47.966;7.854;2023-06-01T06:11:58;15.70;99.90
3528;DHT22;1778;47.966;7.854;2023-06-01T06:13:00;15.80;99.90
3528;DHT22;1778;47.966;7.854;2023-06-01T06:14:01;15.70;99.90
3528;DHT22;1778;47.966;7.854;2023-06-01T06:15:03;15.60;99.90
3528;DHT22;1778;47.966;7.854;2023-06-01T06:16:05;15.50;99.90
3528;DHT22;1778;47.966;7.854;2023-06-01T06:17:07;15.60;99.90
3528;DHT22;1778;47.966;7.854;2023-06-01T06:18:09;15.60;99.90
3528;DHT22;1778;47.966;7.854;2023-06-01T06:19:10;15.70;99.90
3528;DHT22;1778;47.966;7.854;2023-06-01T06:20:12;15.80;99.90
3528;DHT22;1778;47.966;7.854;2023-06-01T06:21:16;15.90;99.90
3528;DHT22;1778;47.966;7.854;2023-06-01T06:22:20;15.90;99.90
3528;DHT22;1778;47.966;7.854;2023-06-01T06:23:22;15.80;99.90
3528;DHT22;1778;47.966;7.854;2023-06-01T06:24:25;15.80;99.90
3528;DHT22;1778;47.966;7.854;2023-06-01T06:25:27;15.70;99.90
3528;DHT22;1778;47.966;7.854;2023-06-01T06:26:29;15.80;99.90
3528;DHT22;1778;47.966;7.854;2023-06-01T06:27:31;15.80;99.90
3528;DHT22;1778;47.966;7.854;2023-06-01T06:28:34;15.80;99.90
3528;DHT22;1778;47.966;7.854;2023-06-01T06:29:36;15.90;99.90
3528;DHT22;1778;47.966;7.854;2023-06-01T06:30:38;16.00;99.90
3528;DHT22;1778;47.966;7.854;2023-06-01T06:31:39;16.10;99.90
3528;DHT22;1778;47.966;7.854;2023-06-01T06:32:41;16.10;99.90
3528;DHT22;1778;47.966;7.854;2023-06-01T06:33:42;16.20;99.90
3528;DHT22;1778;47.966;7.854;2023-06-01T06:34:44;16.30;99.90
3528;DHT22;1778;47.966;7.854;2023-06-01T06:35:46;16.30;99.90
3528;DHT22;1778;47.966;7.854;2023-06-01T06:36:47;16.40;99.90
3528;DHT22;1778;47.966;7.854;2023-06-01T06:37:49;16.50;99.90
3528;DHT22;1778;47.966;7.854;2023-06-01T06:38:51;16.50;99.90
3528;DHT22;1778;47.966;7.854;2023-06-01T06:39:53;16.50;99.90
3528;DHT22;1778;47.966;7.854;2023-06-01T06:40:54;16.60;99.90
3528;DHT22;1778;47.966;7.854;2023-06-01T06:41:59;16.70;99.90
3528;DHT22;1778;47.966;7.854;2023-06-01T06:43:02;16.70;99.90
3528;DHT22;1778;47.966;7.854;2023-06-01T06:44:04;16.80;99.90
3528;DHT22;1778;47.966;7.854;2023-06-01T06:45:06;16.80;99.90
3528;DHT22;1778;47.966;7.854;2023-06-01T06:46:08;16.80;99.90
3528;DHT22;1778;47.966;7.854;2023-06-01T06:47:10;16.80;99.90
3528;DHT22;1778;47.966;7.854;2023-06-01T06:48:16;16.80;99.90
3528;DHT22;1778;47.966;7.854;2023-06-01T06:49:17;16.90;99.90
3528;DHT22;1778;47.966;7.854;2023-06-01T06:50:19;16.90;99.90
3528;DHT22;1778;47.966;7.854;2023-06-01T06:51:21;16.80;99.90
3528;DHT22;1778;47.966;7.854;2023-06-01T06:52:24;16.80;99.90
3528;DHT22;1778;47.966;7.854;2023-06-01T06:53:25;16.90;99.90
3528;DHT22;1778;47.966;7.854;2023-06-01T06:54:27;16.90;99.90
3528;DHT22;1778;47.966;7.854;2023-06-01T06:55:29;16.90;99.90
3528;DHT22;1778;47.966;7.854;2023-06-01T06:56:31;17.00;99.90
3528;DHT22;1778;47.966;7.854;2023-06-01T06:57:32;17.10;99.90
3528;DHT22;1778;47.966;7.854;2023-06-01T06:58:35;17.10;99.90
3528;DHT22;1778;47.966;7.854;2023-06-01T06:59:37;17.20;99.90
3528;DHT22;1778;47.966;7.854;2023-06-01T07:00:39;17.20;99.90